CheckWX is a tool to help pilots better visualize weather data.  It is not intended as a substitute for an official pre-flight weather briefing.

07:49:30 UTC

KLRF TAF
Little Rock AFB Airport
Jacksonville, Arkansas, USA
TAF KLRF 200700Z 2007/2113 25004KT 9999 SCT015 BKN050 QNH2970INS BECMG 2010/2011 VRB04KT 9999 BKN010 QNH2974INS BECMG 2014/2015 26010G18KT 9999 SCT020 QNH2978INS BECMG 2023/2024 22006KT 9999 SKC QNH2974INS TX33/2021Z TN18/2012Z

Jun-20@
07:00 UTC

Jun-20 @ 07:00 UTC

Jun-20@
10:00 UTC

Jun-20 @ 10:00 UTC

TAF KLRF 200700Z 2007/2113 25004KT 9999 SCT015 BKN050 QNH2970INS
Wind
  • 250° at 4 KTS
Cloud Levels
  • Scattered at 1,500' AGL
  • Broken at 5,000' AGL

Jun-20@
10:00 UTC

Jun-20 @ 10:00 UTC

Jun-20@
14:00 UTC

Jun-20 @ 14:00 UTC

BECMG 2010/2011 VRB04KT 9999 BKN010 QNH2974INS

Becoming

Becoming Conditions expected by Thu, Jun 20, 2019 @ 11:00 UTC

Wind
  • Variable at 4 KTS
Cloud Levels
  • Broken at 1,000' AGL

Jun-20@
14:00 UTC

Jun-20 @ 14:00 UTC

Jun-20@
23:00 UTC

Jun-20 @ 23:00 UTC

BECMG 2014/2015 26010G18KT 9999 SCT020 QNH2978INS

Becoming

Becoming Conditions expected by Thu, Jun 20, 2019 @ 15:00 UTC

Wind
  • 260° at 10 KTS
  • {Gusting to 18 KTS
Cloud Levels
  • Scattered at 2,000' AGL

Jun-20@
23:00 UTC

Jun-20 @ 23:00 UTC

Jun-21@
13:00 UTC

Jun-21 @ 13:00 UTC

BECMG 2023/2024 22006KT 9999 SKC QNH2974INS TX33/2021Z TN18/2012Z

Becoming

Becoming Conditions expected by Fri, Jun 21, 2019 @ 00:00 UTC

Wind
  • 220° at 6 KTS
Cloud Levels
  • Clear skies